sensor_id;sensor_type;location;lat;lon;timestamp;P1;durP1;ratioP1;P2;durP2;ratioP2
5752;SDS011;2901;42.140;24.760;2024-02-16T00:00:17;3.50;;;2.90;;
5752;SDS011;2901;42.140;24.760;2024-02-16T00:02:43;4.33;;;3.37;;
5752;SDS011;2901;42.140;24.760;2024-02-16T00:05:09;4.73;;;3.40;;
5752;SDS011;2901;42.140;24.760;2024-02-16T00:07:36;3.90;;;3.40;;
5752;SDS011;2901;42.140;24.760;2024-02-16T00:10:03;3.50;;;3.27;;
5752;SDS011;2901;42.140;24.760;2024-02-16T00:12:32;5.33;;;3.63;;
5752;SDS011;2901;42.140;24.760;2024-02-16T00:14:58;3.33;;;3.13;;
5752;SDS011;2901;42.140;24.760;2024-02-16T00:17:24;3.93;;;3.17;;
5752;SDS011;2901;42.140;24.760;2024-02-16T00:19:52;5.50;;;4.00;;
5752;SDS011;2901;42.140;24.760;2024-02-16T00:22:18;3.57;;;3.30;;
5752;SDS011;2901;42.140;24.760;2024-02-16T00:24:43;3.80;;;3.50;;
5752;SDS011;2901;42.140;24.760;2024-02-16T00:27:09;3.10;;;2.77;;
5752;SDS011;2901;42.140;24.760;2024-02-16T00:29:35;3.13;;;2.90;;
5752;SDS011;2901;42.140;24.760;2024-02-16T00:32:00;3.30;;;3.10;;
5752;SDS011;2901;42.140;24.760;2024-02-16T00:34:26;3.30;;;3.10;;
5752;SDS011;2901;42.140;24.760;2024-02-16T00:36:51;3.87;;;3.63;;
5752;SDS011;2901;42.140;24.760;2024-02-16T00:39:17;4.00;;;3.70;;
5752;SDS011;2901;42.140;24.760;2024-02-16T00:41:43;4.33;;;4.13;;
5752;SDS011;2901;42.140;24.760;2024-02-16T00:44:08;3.77;;;3.47;;
5752;SDS011;2901;42.140;24.760;2024-02-16T00:46:35;4.50;;;3.90;;
5752;SDS011;2901;42.140;24.760;2024-02-16T00:49:01;3.77;;;3.47;;
5752;SDS011;2901;42.140;24.760;2024-02-16T00:51:26;3.70;;;3.50;;
5752;SDS011;2901;42.140;24.760;2024-02-16T00:53:52;4.07;;;3.67;;
5752;SDS011;2901;42.140;24.760;2024-02-16T00:56:18;3.47;;;3.23;;
5752;SDS011;2901;42.140;24.760;2024-02-16T00:58:43;4.20;;;3.80;;
5752;SDS011;2901;42.140;24.760;2024-02-16T01:01:08;3.60;;;3.40;;
5752;SDS011;2901;42.140;24.760;2024-02-16T01:03:36;3.50;;;3.30;;
5752;SDS011;2901;42.140;24.760;2024-02-16T01:06:02;3.57;;;3.37;;
5752;SDS011;2901;42.140;24.760;2024-02-16T01:08:28;3.73;;;3.43;;
5752;SDS011;2901;42.140;24.760;2024-02-16T01:10:54;4.20;;;3.90;;
5752;SDS011;2901;42.140;24.760;2024-02-16T01:13:19;2.80;;;2.70;;
5752;SDS011;2901;42.140;24.760;2024-02-16T01:15:44;3.60;;;3.40;;
5752;SDS011;2901;42.140;24.760;2024-02-16T01:18:10;3.90;;;3.70;;
5752;SDS011;2901;42.140;24.760;2024-02-16T01:20:36;4.30;;;3.07;;
5752;SDS011;2901;42.140;24.760;2024-02-16T01:23:01;4.10;;;3.40;;
5752;SDS011;2901;42.140;24.760;2024-02-16T01:25:28;3.70;;;3.40;;
5752;SDS011;2901;42.140;24.760;2024-02-16T01:27:53;4.90;;;3.60;;
5752;SDS011;2901;42.140;24.760;2024-02-16T01:30:18;3.70;;;3.40;;
5752;SDS011;2901;42.140;24.760;2024-02-16T01:32:45;4.07;;;3.67;;
5752;SDS011;2901;42.140;24.760;2024-02-16T01:35:10;3.17;;;3.07;;
5752;SDS011;2901;42.140;24.760;2024-02-16T01:37:36;3.17;;;2.97;;
5752;SDS011;2901;42.140;24.760;2024-02-16T01:40:01;3.73;;;3.43;;
5752;SDS011;2901;42.140;24.760;2024-02-16T01:42:28;3.87;;;3.67;;
5752;SDS011;2901;42.140;24.760;2024-02-16T01:44:53;3.60;;;3.40;;
5752;SDS011;2901;42.140;24.760;2024-02-16T01:47:19;3.73;;;3.17;;
5752;SDS011;2901;42.140;24.760;2024-02-16T01:49:44;3.63;;;3.43;;
5752;SDS011;2901;42.140;24.760;2024-02-16T01:52:10;3.60;;;3.40;;
5752;SDS011;2901;42.140;24.760;2024-02-16T01:54:36;3.40;;;3.20;;
5752;SDS011;2901;42.140;24.760;2024-02-16T01:57:03;3.70;;;3.50;;
5752;SDS011;2901;42.140;24.760;2024-02-16T01:59:31;3.60;;;3.40;;
5752;SDS011;2901;42.140;24.760;2024-02-16T02:01:58;3.40;;;3.07;;
5752;SDS011;2901;42.140;24.760;2024-02-16T02:04:24;3.57;;;3.37;;
5752;SDS011;2901;42.140;24.760;2024-02-16T02:06:50;3.70;;;3.50;;
5752;SDS011;2901;42.140;24.760;2024-02-16T02:09:16;4.40;;;4.10;;
5752;SDS011;2901;42.140;24.760;2024-02-16T02:11:41;3.67;;;3.37;;
5752;SDS011;2901;42.140;24.760;2024-02-16T02:14:06;3.30;;;3.10;;
5752;SDS011;2901;42.140;24.760;2024-02-16T02:16:32;2.77;;;2.57;;
5752;SDS011;2901;42.140;24.760;2024-02-16T02:18:58;3.60;;;3.23;;
5752;SDS011;2901;42.140;24.760;2024-02-16T02:21:23;3.33;;;3.13;;
5752;SDS011;2901;42.140;24.760;2024-02-16T02:23:48;2.53;;;2.43;;
5752;SDS011;2901;42.140;24.760;2024-02-16T02:26:14;3.73;;;3.23;;
5752;SDS011;2901;42.140;24.760;2024-02-16T02:28:41;4.23;;;3.23;;
5752;SDS011;2901;42.140;24.760;2024-02-16T02:31:07;3.47;;;3.07;;
5752;SDS011;2901;42.140;24.760;2024-02-16T02:33:34;3.43;;;3.10;;
5752;SDS011;2901;42.140;24.760;2024-02-16T02:35:59;3.00;;;2.90;;
5752;SDS011;2901;42.140;24.760;2024-02-16T02:38:24;3.20;;;3.00;;
5752;SDS011;2901;42.140;24.760;2024-02-16T02:40:51;3.47;;;3.27;;
5752;SDS011;2901;42.140;24.760;2024-02-16T02:43:16;3.50;;;2.87;;
5752;SDS011;2901;42.140;24.760;2024-02-16T02:45:43;3.10;;;2.90;;
5752;SDS011;2901;42.140;24.760;2024-02-16T02:48:09;3.73;;;3.43;;
5752;SDS011;2901;42.140;24.760;2024-02-16T02:50:34;4.20;;;3.57;;
5752;SDS011;2901;42.140;24.760;2024-02-16T02:53:00;3.60;;;3.40;;
5752;SDS011;2901;42.140;24.760;2024-02-16T02:55:25;3.37;;;3.10;;
5752;SDS011;2901;42.140;24.760;2024-02-16T02:57:50;3.33;;;3.13;;
5752;SDS011;2901;42.140;24.760;2024-02-16T03:00:16;3.93;;;3.63;;
5752;SDS011;2901;42.140;24.760;2024-02-16T03:02:41;3.30;;;3.00;;
5752;SDS011;2901;42.140;24.760;2024-02-16T03:05:08;5.07;;;2.90;;
5752;SDS011;2901;42.140;24.760;2024-02-16T03:07:34;3.80;;;3.50;;
5752;SDS011;2901;42.140;24.760;2024-02-16T03:10:00;4.13;;;3.73;;
5752;SDS011;2901;42.140;24.760;2024-02-16T03:12:25;3.53;;;3.20;;
5752;SDS011;2901;42.140;24.760;2024-02-16T03:14:51;3.73;;;3.43;;
5752;SDS011;2901;42.140;24.760;2024-02-16T03:17:16;4.20;;;3.90;;
5752;SDS011;2901;42.140;24.760;2024-02-16T03:19:42;4.90;;;3.67;;
5752;SDS011;2901;42.140;24.760;2024-02-16T03:22:07;3.77;;;3.47;;
5752;SDS011;2901;42.140;24.760;2024-02-16T03:24:33;4.63;;;4.27;;
5752;SDS011;2901;42.140;24.760;2024-02-16T03:26:58;4.17;;;3.77;;
5752;SDS011;2901;42.140;24.760;2024-02-16T03:29:25;3.27;;;2.97;;
5752;SDS011;2901;42.140;24.760;2024-02-16T03:31:51;3.43;;;3.23;;
5752;SDS011;2901;42.140;24.760;2024-02-16T03:34:16;4.67;;;3.50;;
5752;SDS011;2901;42.140;24.760;2024-02-16T03:36:42;4.07;;;3.70;;
5752;SDS011;2901;42.140;24.760;2024-02-16T03:39:07;3.90;;;3.60;;
5752;SDS011;2901;42.140;24.760;2024-02-16T03:41:33;5.30;;;3.40;;
5752;SDS011;2901;42.140;24.760;2024-02-16T03:43:59;3.70;;;3.40;;
5752;SDS011;2901;42.140;24.760;2024-02-16T03:46:25;3.87;;;3.47;;
5752;SDS011;2901;42.140;24.760;2024-02-16T03:48:51;3.83;;;3.30;;
5752;SDS011;2901;42.140;24.760;2024-02-16T03:51:16;4.07;;;3.67;;
5752;SDS011;2901;42.140;24.760;2024-02-16T03:53:42;3.50;;;3.30;;
5752;SDS011;2901;42.140;24.760;2024-02-16T03:56:09;3.57;;;3.27;;
5752;SDS011;2901;42.140;24.760;2024-02-16T03:58:35;3.47;;;3.27;;
5752;SDS011;2901;42.140;24.760;2024-02-16T04:01:01;3.80;;;3.50;;
5752;SDS011;2901;42.140;24.760;2024-02-16T04:03:26;3.70;;;3.50;;
5752;SDS011;2901;42.140;24.760;2024-02-16T04:05:52;3.70;;;3.47;;
5752;SDS011;2901;42.140;24.760;2024-02-16T04:08:18;3.53;;;3.30;;
5752;SDS011;2901;42.140;24.760;2024-02-16T04:10:44;3.93;;;3.63;;
5752;SDS011;2901;42.140;24.760;2024-02-16T04:13:10;3.37;;;3.07;;
5752;SDS011;2901;42.140;24.760;2024-02-16T04:15:36;3.50;;;3.30;;
5752;SDS011;2901;42.140;24.760;2024-02-16T04:18:01;4.17;;;3.90;;
5752;SDS011;2901;42.140;24.760;2024-02-16T04:20:27;6.30;;;3.40;;
5752;SDS011;2901;42.140;24.760;2024-02-16T04:22:52;3.87;;;3.57;;
5752;SDS011;2901;42.140;24.760;2024-02-16T04:25:17;4.07;;;3.63;;
5752;SDS011;2901;42.140;24.760;2024-02-16T04:27:43;5.67;;;4.23;;
5752;SDS011;2901;42.140;24.760;2024-02-16T04:30:08;4.73;;;4.43;;
5752;SDS011;2901;42.140;24.760;2024-02-16T04:32:34;3.73;;;3.43;;
5752;SDS011;2901;42.140;24.760;2024-02-16T04:34:59;3.50;;;3.30;;
5752;SDS011;2901;42.140;24.760;2024-02-16T04:37:25;3.17;;;2.97;;
5752;SDS011;2901;42.140;24.760;2024-02-16T04:39:51;3.77;;;3.50;;
5752;SDS011;2901;42.140;24.760;2024-02-16T04:42:16;3.87;;;3.67;;
5752;SDS011;2901;42.140;24.760;2024-02-16T04:44:42;4.73;;;4.27;;
5752;SDS011;2901;42.140;24.760;2024-02-16T04:47:08;4.07;;;3.87;;
5752;SDS011;2901;42.140;24.760;2024-02-16T04:49:37;3.83;;;3.63;;
5752;SDS011;2901;42.140;24.760;2024-02-16T04:52:02;4.00;;;3.67;;
5752;SDS011;2901;42.140;24.760;2024-02-16T04:54:28;3.73;;;3.43;;
5752;SDS011;2901;42.140;24.760;2024-02-16T04:56:54;4.00;;;3.73;;
5752;SDS011;2901;42.140;24.760;2024-02-16T04:59:19;4.57;;;3.90;;
5752;SDS011;2901;42.140;24.760;2024-02-16T05:01:45;5.93;;;3.93;;
5752;SDS011;2901;42.140;24.760;2024-02-16T05:04:11;6.17;;;3.63;;
5752;SDS011;2901;42.140;24.760;2024-02-16T05:06:45;3.83;;;3.63;;
5752;SDS011;2901;42.140;24.760;2024-02-16T05:09:11;4.67;;;3.97;;
5752;SDS011;2901;42.140;24.760;2024-02-16T05:11:37;3.63;;;3.40;;
5752;SDS011;2901;42.140;24.760;2024-02-16T05:14:02;3.90;;;3.63;;
5752;SDS011;2901;42.140;24.760;2024-02-16T05:16:28;7.40;;;4.93;;
5752;SDS011;2901;42.140;24.760;2024-02-16T05:18:55;4.27;;;3.80;;
5752;SDS011;2901;42.140;24.760;2024-02-16T05:21:21;3.90;;;3.60;;
5752;SDS011;2901;42.140;24.760;2024-02-16T05:23:47;3.73;;;3.53;;
5752;SDS011;2901;42.140;24.760;2024-02-16T05:26:12;3.70;;;3.50;;
5752;SDS011;2901;42.140;24.760;2024-02-16T05:28:38;4.10;;;3.73;;
5752;SDS011;2901;42.140;24.760;2024-02-16T05:31:12;5.73;;;3.50;;
5752;SDS011;2901;42.140;24.760;2024-02-16T05:33:46;4.47;;;3.17;;
5752;SDS011;2901;42.140;24.760;2024-02-16T05:36:16;6.37;;;4.13;;
5752;SDS011;2901;42.140;24.760;2024-02-16T05:38:46;4.17;;;3.77;;
5752;SDS011;2901;42.140;24.760;2024-02-16T05:41:12;3.50;;;3.20;;
5752;SDS011;2901;42.140;24.760;2024-02-16T05:43:37;3.23;;;3.03;;
5752;SDS011;2901;42.140;24.760;2024-02-16T05:46:03;4.00;;;3.77;;
5752;SDS011;2901;42.140;24.760;2024-02-16T05:48:33;4.50;;;4.10;;
5752;SDS011;2901;42.140;24.760;2024-02-16T05:51:02;4.50;;;3.23;;
5752;SDS011;2901;42.140;24.760;2024-02-16T05:53:28;3.50;;;3.27;;
5752;SDS011;2901;42.140;24.760;2024-02-16T05:55:54;3.87;;;3.50;;
5752;SDS011;2901;42.140;24.760;2024-02-16T05:58:20;6.53;;;3.73;;
5752;SDS011;2901;42.140;24.760;2024-02-16T06:00:45;4.57;;;4.17;;
5752;SDS011;2901;42.140;24.760;2024-02-16T06:03:12;3.77;;;3.53;;
5752;SDS011;2901;42.140;24.760;2024-02-16T06:05:38;4.00;;;3.80;;
5752;SDS011;2901;42.140;24.760;2024-02-16T06:08:05;3.97;;;3.77;;
5752;SDS011;2901;42.140;24.760;2024-02-16T06:10:32;9.37;;;3.10;;
5752;SDS011;2901;42.140;24.760;2024-02-16T06:12:58;4.10;;;3.67;;
5752;SDS011;2901;42.140;24.760;2024-02-16T06:15:23;4.00;;;3.80;;
5752;SDS011;2901;42.140;24.760;2024-02-16T06:17:48;3.60;;;3.10;;
5752;SDS011;2901;42.140;24.760;2024-02-16T06:20:15;10.50;;;3.30;;
5752;SDS011;2901;42.140;24.760;2024-02-16T06:22:41;3.67;;;3.47;;
5752;SDS011;2901;42.140;24.760;2024-02-16T06:25:07;3.10;;;2.80;;
5752;SDS011;2901;42.140;24.760;2024-02-16T06:27:33;9.63;;;3.47;;
5752;SDS011;2901;42.140;24.760;2024-02-16T06:29:58;3.57;;;3.20;;
5752;SDS011;2901;42.140;24.760;2024-02-16T06:32:23;3.90;;;3.47;;
5752;SDS011;2901;42.140;24.760;2024-02-16T06:34:49;4.23;;;3.60;;
5752;SDS011;2901;42.140;24.760;2024-02-16T06:37:14;4.13;;;3.73;;
5752;SDS011;2901;42.140;24.760;2024-02-16T06:39:40;3.47;;;3.27;;
5752;SDS011;2901;42.140;24.760;2024-02-16T06:42:05;3.40;;;3.00;;
5752;SDS011;2901;42.140;24.760;2024-02-16T06:44:31;4.10;;;3.70;;
5752;SDS011;2901;42.140;24.760;2024-02-16T06:46:56;4.77;;;3.23;;
5752;SDS011;2901;42.140;24.760;2024-02-16T06:49:21;3.63;;;3.33;;
5752;SDS011;2901;42.140;24.760;2024-02-16T06:51:47;3.70;;;3.47;;
5752;SDS011;2901;42.140;24.760;2024-02-16T06:54:12;4.27;;;3.80;;
5752;SDS011;2901;42.140;24.760;2024-02-16T06:56:38;4.23;;;3.83;;
5752;SDS011;2901;42.140;24.760;2024-02-16T06:59:03;3.87;;;3.67;;
5752;SDS011;2901;42.140;24.760;2024-02-16T07:01:28;4.28;;;3.97;;
5752;SDS011;2901;42.140;24.760;2024-02-16T07:03:54;4.60;;;4.23;;
5752;SDS011;2901;42.140;24.760;2024-02-16T07:06:20;4.33;;;4.13;;
5752;SDS011;2901;42.140;24.760;2024-02-16T07:08:45;3.77;;;3.57;;
5752;SDS011;2901;42.140;24.760;2024-02-16T07:11:11;5.70;;;4.17;;
5752;SDS011;2901;42.140;24.760;2024-02-16T07:13:38;4.00;;;3.80;;
5752;SDS011;2901;42.140;24.760;2024-02-16T07:16:09;6.90;;;3.65;;
5752;SDS011;2901;42.140;24.760;2024-02-16T07:18:35;4.33;;;4.13;;
5752;SDS011;2901;42.140;24.760;2024-02-16T07:21:01;4.45;;;4.25;;
5752;SDS011;2901;42.140;24.760;2024-02-16T07:23:27;4.28;;;4.07;;
5752;SDS011;2901;42.140;24.760;2024-02-16T07:25:52;3.75;;;3.47;;
5752;SDS011;2901;42.140;24.760;2024-02-16T07:28:22;3.53;;;3.20;;
5752;SDS011;2901;42.140;24.760;2024-02-16T07:30:48;4.25;;;2.85;;
5752;SDS011;2901;42.140;24.760;2024-02-16T07:33:15;6.22;;;3.60;;
5752;SDS011;2901;42.140;24.760;2024-02-16T07:35:40;3.67;;;3.47;;
5752;SDS011;2901;42.140;24.760;2024-02-16T07:38:06;5.82;;;4.35;;
5752;SDS011;2901;42.140;24.760;2024-02-16T07:40:32;4.30;;;4.03;;
5752;SDS011;2901;42.140;24.760;2024-02-16T07:42:57;3.13;;;2.92;;
5752;SDS011;2901;42.140;24.760;2024-02-16T07:45:23;7.15;;;4.10;;
5752;SDS011;2901;42.140;24.760;2024-02-16T07:47:48;4.03;;;3.35;;
5752;SDS011;2901;42.140;24.760;2024-02-16T07:50:17;3.67;;;3.47;;
5752;SDS011;2901;42.140;24.760;2024-02-16T07:52:43;4.65;;;4.05;;
5752;SDS011;2901;42.140;24.760;2024-02-16T07:55:09;5.82;;;3.80;;
5752;SDS011;2901;42.140;24.760;2024-02-16T07:57:34;3.75;;;3.47;;
5752;SDS011;2901;42.140;24.760;2024-02-16T08:00:01;4.20;;;3.78;;
5752;SDS011;2901;42.140;24.760;2024-02-16T08:02:28;3.47;;;3.28;;
5752;SDS011;2901;42.140;24.760;2024-02-16T08:04:54;4.32;;;3.13;;
5752;SDS011;2901;42.140;24.760;2024-02-16T08:07:19;4.25;;;3.80;;
5752;SDS011;2901;42.140;24.760;2024-02-16T08:09:48;4.68;;;3.45;;
5752;SDS011;2901;42.140;24.760;2024-02-16T08:12:14;5.22;;;3.88;;
5752;SDS011;2901;42.140;24.760;2024-02-16T08:14:39;3.17;;;2.92;;
5752;SDS011;2901;42.140;24.760;2024-02-16T08:17:05;3.15;;;2.97;;
5752;SDS011;2901;42.140;24.760;2024-02-16T08:19:32;4.40;;;4.10;;
5752;SDS011;2901;42.140;24.760;2024-02-16T08:22:01;2.47;;;2.38;;
5752;SDS011;2901;42.140;24.760;2024-02-16T08:24:34;3.58;;;3.28;;
5752;SDS011;2901;42.140;24.760;2024-02-16T08:27:00;3.15;;;2.95;;
5752;SDS011;2901;42.140;24.760;2024-02-16T08:29:25;3.13;;;2.95;;
5752;SDS011;2901;42.140;24.760;2024-02-16T08:31:51;3.72;;;3.42;;
5752;SDS011;2901;42.140;24.760;2024-02-16T08:34:17;4.13;;;3.75;;
5752;SDS011;2901;42.140;24.760;2024-02-16T08:36:46;3.97;;;3.67;;
5752;SDS011;2901;42.140;24.760;2024-02-16T08:39:12;6.47;;;3.85;;
5752;SDS011;2901;42.140;24.760;2024-02-16T08:41:38;4.95;;;3.63;;
5752;SDS011;2901;42.140;24.760;2024-02-16T08:44:04;3.97;;;3.78;;
5752;SDS011;2901;42.140;24.760;2024-02-16T08:46:29;3.95;;;3.55;;
5752;SDS011;2901;42.140;24.760;2024-02-16T08:48:55;3.88;;;3.60;;
5752;SDS011;2901;42.140;24.760;2024-02-16T08:51:20;3.85;;;3.65;;
5752;SDS011;2901;42.140;24.760;2024-02-16T08:53:46;3.85;;;3.47;;
5752;SDS011;2901;42.140;24.760;2024-02-16T08:56:12;4.05;;;3.67;;
5752;SDS011;2901;42.140;24.760;2024-02-16T08:58:37;3.38;;;3.17;;
5752;SDS011;2901;42.140;24.760;2024-02-16T09:01:04;6.05;;;3.53;;
5752;SDS011;2901;42.140;24.760;2024-02-16T09:03:29;5.57;;;3.45;;
5752;SDS011;2901;42.140;24.760;2024-02-16T09:06:01;4.40;;;4.05;;
5752;SDS011;2901;42.140;24.760;2024-02-16T09:08:27;4.20;;;3.85;;
5752;SDS011;2901;42.140;24.760;2024-02-16T09:10:55;7.63;;;3.75;;
5752;SDS011;2901;42.140;24.760;2024-02-16T09:13:21;4.18;;;3.40;;
5752;SDS011;2901;42.140;24.760;2024-02-16T09:15:46;4.15;;;3.95;;
5752;SDS011;2901;42.140;24.760;2024-02-16T09:18:12;4.68;;;3.60;;
5752;SDS011;2901;42.140;24.760;2024-02-16T09:20:39;4.32;;;3.55;;
5752;SDS011;2901;42.140;24.760;2024-02-16T09:23:04;5.35;;;4.50;;
5752;SDS011;2901;42.140;24.760;2024-02-16T09:25:29;4.05;;;3.67;;
5752;SDS011;2901;42.140;24.760;2024-02-16T09:27:55;3.60;;;3.40;;
5752;SDS011;2901;42.140;24.760;2024-02-16T09:30:20;5.88;;;3.85;;
5752;SDS011;2901;42.140;24.760;2024-02-16T09:32:46;4.47;;;4.10;;
5752;SDS011;2901;42.140;24.760;2024-02-16T09:35:12;4.00;;;3.80;;
5752;SDS011;2901;42.140;24.760;2024-02-16T09:37:38;4.90;;;3.85;;
5752;SDS011;2901;42.140;24.760;2024-02-16T09:40:05;4.07;;;3.88;;
5752;SDS011;2901;42.140;24.760;2024-02-16T09:42:31;5.07;;;3.72;;
5752;SDS011;2901;42.140;24.760;2024-02-16T09:45:00;4.90;;;3.35;;
5752;SDS011;2901;42.140;24.760;2024-02-16T09:47:25;4.43;;;3.78;;
5752;SDS011;2901;42.140;24.760;2024-02-16T09:49:53;3.88;;;3.63;;
5752;SDS011;2901;42.140;24.760;2024-02-16T09:52:19;4.22;;;3.30;;
5752;SDS011;2901;42.140;24.760;2024-02-16T09:54:45;4.05;;;3.85;;
5752;SDS011;2901;42.140;24.760;2024-02-16T09:57:10;4.70;;;3.40;;
5752;SDS011;2901;42.140;24.760;2024-02-16T09:59:36;3.15;;;2.78;;
5752;SDS011;2901;42.140;24.760;2024-02-16T10:02:02;8.07;;;2.90;;
5752;SDS011;2901;42.140;24.760;2024-02-16T10:04:28;2.45;;;2.25;;
5752;SDS011;2901;42.140;24.760;2024-02-16T10:06:54;3.10;;;2.90;;
5752;SDS011;2901;42.140;24.760;2024-02-16T10:09:23;3.15;;;2.95;;
5752;SDS011;2901;42.140;24.760;2024-02-16T10:11:54;2.65;;;2.45;;
5752;SDS011;2901;42.140;24.760;2024-02-16T10:14:19;2.45;;;2.25;;
5752;SDS011;2901;42.140;24.760;2024-02-16T10:16:58;2.38;;;2.28;;
5752;SDS011;2901;42.140;24.760;2024-02-16T10:19:25;2.13;;;2.03;;
5752;SDS011;2901;42.140;24.760;2024-02-16T10:21:50;3.47;;;2.10;;
5752;SDS011;2901;42.140;24.760;2024-02-16T10:24:20;2.28;;;2.17;;
5752;SDS011;2901;42.140;24.760;2024-02-16T10:26:47;2.60;;;2.50;;
5752;SDS011;2901;42.140;24.760;2024-02-16T10:29:15;3.88;;;2.20;;
5752;SDS011;2901;42.140;24.760;2024-02-16T10:31:44;3.08;;;2.88;;
5752;SDS011;2901;42.140;24.760;2024-02-16T10:34:10;3.08;;;2.88;;
5752;SDS011;2901;42.140;24.760;2024-02-16T10:36:37;2.50;;;2.40;;
5752;SDS011;2901;42.140;24.760;2024-02-16T10:39:04;2.10;;;1.90;;
5752;SDS011;2901;42.140;24.760;2024-02-16T10:41:34;2.40;;;2.30;;
5752;SDS011;2901;42.140;24.760;2024-02-16T10:44:02;2.63;;;2.22;;
5752;SDS011;2901;42.140;24.760;2024-02-16T10:46:29;1.95;;;1.85;;
5752;SDS011;2901;42.140;24.760;2024-02-16T10:48:55;2.72;;;2.08;;
5752;SDS011;2901;42.140;24.760;2024-02-16T10:51:40;2.58;;;2.25;;
5752;SDS011;2901;42.140;24.760;2024-02-16T10:54:07;2.03;;;1.90;;
5752;SDS011;2901;42.140;24.760;2024-02-16T10:56:35;2.40;;;2.30;;
5752;SDS011;2901;42.140;24.760;2024-02-16T10:59:05;1.88;;;1.77;;
5752;SDS011;2901;42.140;24.760;2024-02-16T11:01:37;2.00;;;1.90;;
5752;SDS011;2901;42.140;24.760;2024-02-16T11:04:03;1.50;;;1.50;;
5752;SDS011;2901;42.140;24.760;2024-02-16T11:06:33;2.13;;;2.03;;
5752;SDS011;2901;42.140;24.760;2024-02-16T11:09:23;2.03;;;1.42;;
5752;SDS011;2901;42.140;24.760;2024-02-16T11:11:54;1.95;;;1.85;;
5752;SDS011;2901;42.140;24.760;2024-02-16T11:17:02;2.55;;;2.35;;
5752;SDS011;2901;42.140;24.760;2024-02-16T11:19:32;5.43;;;2.58;;
5752;SDS011;2901;42.140;24.760;2024-02-16T11:21:57;2.20;;;2.10;;
5752;SDS011;2901;42.140;24.760;2024-02-16T11:24:33;2.45;;;2.28;;
5752;SDS011;2901;42.140;24.760;2024-02-16T11:27:03;3.10;;;2.00;;
5752;SDS011;2901;42.140;24.760;2024-02-16T11:29:33;2.83;;;2.63;;
5752;SDS011;2901;42.140;24.760;2024-02-16T11:32:00;2.17;;;2.08;;
5752;SDS011;2901;42.140;24.760;2024-02-16T11:34:28;2.47;;;2.38;;
5752;SDS011;2901;42.140;24.760;2024-02-16T11:36:57;2.17;;;2.08;;
5752;SDS011;2901;42.140;24.760;2024-02-16T11:39:23;3.22;;;2.92;;
5752;SDS011;2901;42.140;24.760;2024-02-16T11:42:04;1.65;;;1.55;;
5752;SDS011;2901;42.140;24.760;2024-02-16T11:44:37;2.47;;;1.48;;
5752;SDS011;2901;42.140;24.760;2024-02-16T11:47:05;1.75;;;1.65;;
5752;SDS011;2901;42.140;24.760;2024-02-16T11:49:37;1.52;;;1.52;;
5752;SDS011;2901;42.140;24.760;2024-02-16T11:52:09;2.10;;;2.00;;
5752;SDS011;2901;42.140;24.760;2024-02-16T11:54:35;1.70;;;1.60;;
5752;SDS011;2901;42.140;24.760;2024-02-16T11:57:02;2.25;;;1.30;;
5752;SDS011;2901;42.140;24.760;2024-02-16T11:59:28;2.03;;;1.92;;
5752;SDS011;2901;42.140;24.760;2024-02-16T12:01:56;2.08;;;1.98;;
5752;SDS011;2901;42.140;24.760;2024-02-16T12:04:29;2.00;;;1.90;;
5752;SDS011;2901;42.140;24.760;2024-02-16T12:06:59;2.08;;;1.98;;
5752;SDS011;2901;42.140;24.760;2024-02-16T12:09:25;2.30;;;1.75;;
5752;SDS011;2901;42.140;24.760;2024-02-16T12:11:52;1.98;;;1.88;;
5752;SDS011;2901;42.140;24.760;2024-02-16T12:14:19;2.20;;;2.10;;
5752;SDS011;2901;42.140;24.760;2024-02-16T12:16:47;1.85;;;1.83;;
5752;SDS011;2901;42.140;24.760;2024-02-16T12:19:13;2.17;;;2.08;;
5752;SDS011;2901;42.140;24.760;2024-02-16T12:21:38;2.00;;;1.90;;
5752;SDS011;2901;42.140;24.760;2024-02-16T12:24:04;5.70;;;1.50;;
5752;SDS011;2901;42.140;24.760;2024-02-16T12:26:30;3.97;;;1.88;;
5752;SDS011;2901;42.140;24.760;2024-02-16T12:28:55;2.38;;;2.28;;
5752;SDS011;2901;42.140;24.760;2024-02-16T12:31:21;2.03;;;1.92;;
5752;SDS011;2901;42.140;24.760;2024-02-16T12:33:47;2.10;;;2.00;;
5752;SDS011;2901;42.140;24.760;2024-02-16T12:36:12;5.68;;;2.22;;
5752;SDS011;2901;42.140;24.760;2024-02-16T12:38:38;2.53;;;2.35;;
5752;SDS011;2901;42.140;24.760;2024-02-16T12:41:03;3.00;;;2.80;;
5752;SDS011;2901;42.140;24.760;2024-02-16T12:43:29;6.88;;;3.17;;
5752;SDS011;2901;42.140;24.760;2024-02-16T12:45:54;2.70;;;2.50;;
5752;SDS011;2901;42.140;24.760;2024-02-16T12:48:20;2.55;;;2.45;;
5752;SDS011;2901;42.140;24.760;2024-02-16T12:50:45;9.38;;;2.25;;
5752;SDS011;2901;42.140;24.760;2024-02-16T12:53:12;2.38;;;2.20;;
5752;SDS011;2901;42.140;24.760;2024-02-16T12:55:38;3.80;;;2.63;;
5752;SDS011;2901;42.140;24.760;2024-02-16T12:58:03;1.95;;;1.85;;
5752;SDS011;2901;42.140;24.760;2024-02-16T13:00:29;1.55;;;1.45;;
5752;SDS011;2901;42.140;24.760;2024-02-16T13:02:54;2.22;;;2.03;;
5752;SDS011;2901;42.140;24.760;2024-02-16T13:05:20;2.05;;;1.95;;
5752;SDS011;2901;42.140;24.760;2024-02-16T13:07:46;2.33;;;2.22;;
5752;SDS011;2901;42.140;24.760;2024-02-16T13:10:12;1.90;;;1.80;;
5752;SDS011;2901;42.140;24.760;2024-02-16T13:12:37;2.53;;;2.42;;
5752;SDS011;2901;42.140;24.760;2024-02-16T13:15:03;2.17;;;1.45;;
5752;SDS011;2901;42.140;24.760;2024-02-16T13:17:33;2.55;;;2.42;;
5752;SDS011;2901;42.140;24.760;2024-02-16T13:19:58;6.07;;;2.85;;
5752;SDS011;2901;42.140;24.760;2024-02-16T13:22:32;2.15;;;1.90;;
5752;SDS011;2901;42.140;24.760;2024-02-16T13:25:03;3.38;;;2.13;;
5752;SDS011;2901;42.140;24.760;2024-02-16T13:27:30;2.42;;;2.22;;
5752;SDS011;2901;42.140;24.760;2024-02-16T13:29:56;5.05;;;2.95;;
5752;SDS011;2901;42.140;24.760;2024-02-16T13:32:21;3.05;;;2.17;;
5752;SDS011;2901;42.140;24.760;2024-02-16T13:34:47;2.83;;;2.60;;
5752;SDS011;2901;42.140;24.760;2024-02-16T13:37:13;3.63;;;3.00;;
5752;SDS011;2901;42.140;24.760;2024-02-16T13:39:38;3.17;;;2.88;;
5752;SDS011;2901;42.140;24.760;2024-02-16T13:42:04;2.78;;;2.53;;
5752;SDS011;2901;42.140;24.760;2024-02-16T13:44:29;2.60;;;2.40;;
5752;SDS011;2901;42.140;24.760;2024-02-16T13:46:55;3.70;;;3.17;;
5752;SDS011;2901;42.140;24.760;2024-02-16T13:49:20;8.00;;;4.25;;
5752;SDS011;2901;42.140;24.760;2024-02-16T13:51:45;3.20;;;3.00;;
5752;SDS011;2901;42.140;24.760;2024-02-16T13:54:11;3.15;;;2.95;;
5752;SDS011;2901;42.140;24.760;2024-02-16T13:56:36;3.10;;;2.95;;
5752;SDS011;2901;42.140;24.760;2024-02-16T13:59:03;3.53;;;3.17;;
5752;SDS011;2901;42.140;24.760;2024-02-16T14:01:29;3.65;;;3.45;;
5752;SDS011;2901;42.140;24.760;2024-02-16T14:03:55;2.67;;;2.58;;
5752;SDS011;2901;42.140;24.760;2024-02-16T14:06:20;3.45;;;3.15;;
5752;SDS011;2901;42.140;24.760;2024-02-16T14:08:46;3.40;;;3.10;;
5752;SDS011;2901;42.140;24.760;2024-02-16T14:11:14;3.33;;;3.13;;
5752;SDS011;2901;42.140;24.760;2024-02-16T14:13:39;2.53;;;2.42;;
5752;SDS011;2901;42.140;24.760;2024-02-16T14:16:05;3.17;;;2.88;;
5752;SDS011;2901;42.140;24.760;2024-02-16T14:18:30;6.07;;;2.75;;
5752;SDS011;2901;42.140;24.760;2024-02-16T14:20:56;3.10;;;2.90;;
5752;SDS011;2901;42.140;24.760;2024-02-16T14:23:21;4.80;;;2.88;;
5752;SDS011;2901;42.140;24.760;2024-02-16T14:25:46;3.42;;;3.13;;
5752;SDS011;2901;42.140;24.760;2024-02-16T14:28:12;3.58;;;3.28;;
5752;SDS011;2901;42.140;24.760;2024-02-16T14:30:37;4.25;;;3.47;;
5752;SDS011;2901;42.140;24.760;2024-02-16T14:33:04;3.10;;;2.95;;
5752;SDS011;2901;42.140;24.760;2024-02-16T14:35:30;3.22;;;2.95;;
5752;SDS011;2901;42.140;24.760;2024-02-16T14:37:56;4.95;;;3.15;;
5752;SDS011;2901;42.140;24.760;2024-02-16T14:40:23;3.00;;;2.80;;
5752;SDS011;2901;42.140;24.760;2024-02-16T14:42:48;4.95;;;3.65;;
5752;SDS011;2901;42.140;24.760;2024-02-16T14:45:14;6.25;;;4.30;;
5752;SDS011;2901;42.140;24.760;2024-02-16T14:47:46;4.13;;;3.78;;
5752;SDS011;2901;42.140;24.760;2024-02-16T14:50:12;3.13;;;2.75;;
5752;SDS011;2901;42.140;24.760;2024-02-16T14:52:38;3.30;;;3.10;;
5752;SDS011;2901;42.140;24.760;2024-02-16T14:55:04;3.33;;;3.03;;
5752;SDS011;2901;42.140;24.760;2024-02-16T14:57:35;2.95;;;2.75;;